createdAt,value
2022-09-21T00:00:55.548Z,89.60
2022-09-21T00:03:26.858Z,89.30
2022-09-21T00:06:05.645Z,89.90
2022-09-21T00:08:37.252Z,89.90
2022-09-21T00:11:09.824Z,89.60
2022-09-21T00:13:40.479Z,88.70
2022-09-21T00:16:13.148Z,87.60
2022-09-21T00:18:45.024Z,88.00
2022-09-21T00:21:18.247Z,87.50
2022-09-21T00:23:50.370Z,87.00
2022-09-21T00:26:23.669Z,87.00
2022-09-21T00:28:59.131Z,86.90
2022-09-21T00:31:31.340Z,87.10
2022-09-21T00:34:03.181Z,85.80
2022-09-21T00:36:35.033Z,86.10
2022-09-21T00:39:07.238Z,85.30
2022-09-21T00:41:37.766Z,84.70
2022-09-21T00:44:34.654Z,84.80
2022-09-21T00:47:19.756Z,84.40
2022-09-21T00:49:54.311Z,84.70
2022-09-21T00:52:27.282Z,84.30
2022-09-21T00:55:13.453Z,84.90
2022-09-21T00:57:44.962Z,84.10
2022-09-21T01:00:16.704Z,84.80
2022-09-21T01:02:48.146Z,84.70
2022-09-21T01:05:18.332Z,84.90
2022-09-21T01:07:50.528Z,85.10
2022-09-21T01:10:22.384Z,85.10
2022-09-21T01:13:13.309Z,86.20
2022-09-21T01:15:57.187Z,85.80
2022-09-21T01:18:45.687Z,86.60
2022-09-21T01:21:26.650Z,86.10
2022-09-21T01:24:42.147Z,86.30
2022-09-21T01:27:26.980Z,86.30
2022-09-21T01:30:12.368Z,86.00
2022-09-21T01:33:03.921Z,85.90
2022-09-21T01:35:43.188Z,85.40
2022-09-21T01:38:34.730Z,84.40
2022-09-21T01:41:09.295Z,85.50
2022-09-21T01:43:50.794Z,83.80
2022-09-21T01:46:23.569Z,83.60
2022-09-21T01:48:58.877Z,82.30
2022-09-21T01:51:31.012Z,82.20
2022-09-21T01:54:23.136Z,81.30
2022-09-21T01:57:25.492Z,80.10
2022-09-21T01:59:57.812Z,80.30
2022-09-21T02:02:54.232Z,80.40
2022-09-21T02:05:27.112Z,79.50
2022-09-21T02:07:58.271Z,80.80
2022-09-21T02:10:55.347Z,80.80
2022-09-21T02:13:29.267Z,80.00
2022-09-21T02:16:14.931Z,79.80
2022-09-21T02:18:51.373Z,79.10
2022-09-21T02:21:47.684Z,79.90
2022-09-21T02:24:42.276Z,79.80
2022-09-21T02:27:35.180Z,79.70
2022-09-21T02:30:21.910Z,78.80
2022-09-21T02:33:16.097Z,78.80
2022-09-21T02:36:03.008Z,78.90
2022-09-21T02:38:50.247Z,78.10
2022-09-21T02:41:32.939Z,78.90
2022-09-21T02:44:35.301Z,80.00
2022-09-21T02:47:12.657Z,80.00
2022-09-21T02:49:53.415Z,79.20
2022-09-21T02:52:25.511Z,79.10
2022-09-21T02:54:58.253Z,79.00
2022-09-21T02:57:29.368Z,79.30
2022-09-21T02:59:59.819Z,79.20
2022-09-21T03:02:43.710Z,78.40
2022-09-21T03:05:17.098Z,78.80
2022-09-21T03:07:47.273Z,79.20
2022-09-21T03:10:17.440Z,79.60
2022-09-21T03:12:48.624Z,79.10
2022-09-21T03:15:19.795Z,79.70
2022-09-21T03:17:50.469Z,78.80
2022-09-21T03:20:20.604Z,77.40
2022-09-21T03:22:51.210Z,77.20
2022-09-21T03:25:21.784Z,77.90
2022-09-21T03:27:55.514Z,76.90
2022-09-21T03:30:28.846Z,78.20
2022-09-21T03:33:00.351Z,76.90
2022-09-21T03:35:30.904Z,77.50
2022-09-21T03:38:01.810Z,77.20
2022-09-21T03:40:32.655Z,77.60
2022-09-21T03:43:02.952Z,76.30
2022-09-21T03:45:33.203Z,76.60
2022-09-21T03:48:04.026Z,76.90
2022-09-21T03:50:34.303Z,76.90
2022-09-21T03:53:04.553Z,76.90
2022-09-21T03:55:34.914Z,77.30
2022-09-21T03:58:05.737Z,77.20
2022-09-21T04:00:36.177Z,76.90
2022-09-21T04:03:06.691Z,76.10
2022-09-21T04:05:37.042Z,76.40
2022-09-21T04:08:08.937Z,76.00
2022-09-21T04:10:39.594Z,76.00
2022-09-21T04:13:11.879Z,75.80
2022-09-21T04:15:43.382Z,75.40
2022-09-21T04:18:13.930Z,75.80
2022-09-21T04:20:44.319Z,76.10
2022-09-21T04:23:14.561Z,75.70
2022-09-21T04:25:45.891Z,74.70
2022-09-21T04:28:16.107Z,74.30
2022-09-21T04:30:46.678Z,74.10
2022-09-21T04:33:17.182Z,73.80
2022-09-21T04:35:48.569Z,74.20
2022-09-21T04:38:19.077Z,74.80
2022-09-21T04:40:58.989Z,74.70
2022-09-21T04:43:30.489Z,75.60
2022-09-21T04:46:02.336Z,74.60
2022-09-21T04:48:32.888Z,75.40
2022-09-21T04:51:04.036Z,76.00
2022-09-21T04:53:34.537Z,76.50
2022-09-21T04:56:05.694Z,76.50
2022-09-21T04:58:36.958Z,76.00
2022-09-21T05:01:08.598Z,76.40
2022-09-21T05:03:40.490Z,76.70
2022-09-21T05:06:15.492Z,78.10
2022-09-21T05:09:04.646Z,78.50
2022-09-21T05:11:35.646Z,78.80
2022-09-21T05:14:06.718Z,79.90
2022-09-21T05:16:36.971Z,80.00
2022-09-21T05:19:08.512Z,80.20
2022-09-21T05:21:40.372Z,80.70
2022-09-21T05:24:11.056Z,80.80
2022-09-21T05:26:41.763Z,80.70
2022-09-21T05:29:12.517Z,80.60
2022-09-21T05:31:48.978Z,80.80
2022-09-21T05:34:44.882Z,81.00
2022-09-21T05:37:39.756Z,80.30
2022-09-21T05:40:12.738Z,81.90
2022-09-21T05:42:43.688Z,81.00
2022-09-21T05:45:18.361Z,80.80
2022-09-21T05:48:06.644Z,81.10
2022-09-21T05:50:39.443Z,80.60
2022-09-21T05:53:30.975Z,80.60
2022-09-21T05:56:06.627Z,80.90
2022-09-21T05:58:48.458Z,81.30
2022-09-21T06:02:23.002Z,81.70
2022-09-21T06:04:57.575Z,81.90
2022-09-21T06:07:28.249Z,82.40
2022-09-21T06:10:00.865Z,82.80
2022-09-21T06:12:31.773Z,83.20
2022-09-21T06:15:01.951Z,84.10
2022-09-21T06:17:34.911Z,84.20
2022-09-21T06:20:15.794Z,84.70
2022-09-21T06:22:47.891Z,85.50
2022-09-21T06:25:18.588Z,85.10
2022-09-21T06:27:49.246Z,86.40
2022-09-21T06:30:20.434Z,85.80
2022-09-21T06:32:51.188Z,86.50
2022-09-21T06:35:22.124Z,86.40
2022-09-21T06:37:52.762Z,86.70
2022-09-21T06:40:23.087Z,87.50
2022-09-21T06:42:57.320Z,87.00
2022-09-21T06:45:28.620Z,87.50
2022-09-21T06:47:59.111Z,87.80
2022-09-21T06:50:29.441Z,87.80
2022-09-21T06:53:04.248Z,88.30
2022-09-21T06:55:35.267Z,88.80
2022-09-21T06:58:06.952Z,88.90
2022-09-21T07:00:37.548Z,88.70
2022-09-21T07:03:07.786Z,89.70
2022-09-21T07:05:38.147Z,90.30
2022-09-21T07:10:05.004Z,90.30
2022-09-21T07:11:05.056Z,90.20
2022-09-21T07:13:35.827Z,90.30
2022-09-21T07:16:10.959Z,90.50
2022-09-21T07:18:45.674Z,91.20
2022-09-21T07:21:16.551Z,91.50
2022-09-21T07:23:46.918Z,91.70
2022-09-21T07:26:17.341Z,91.90
2022-09-21T07:28:48.036Z,92.00
2022-09-21T07:31:21.227Z,92.00
2022-09-21T07:33:51.560Z,92.10
2022-09-21T07:36:22.214Z,92.20
2022-09-21T07:38:52.547Z,92.30
2022-09-21T07:41:23.319Z,92.60
2022-09-21T07:43:55.315Z,92.90
2022-09-21T07:46:27.272Z,93.00
2022-09-21T07:48:58.656Z,93.20
2022-09-21T07:51:28.933Z,93.50
2022-09-21T07:54:00.035Z,93.80
2022-09-21T07:56:30.306Z,93.90
2022-09-21T07:59:09.750Z,94.00
2022-09-21T08:01:44.872Z,94.00
2022-09-21T08:04:15.362Z,94.10
2022-09-21T08:06:45.672Z,94.30
2022-09-21T08:09:16.060Z,94.50
2022-09-21T08:11:47.896Z,94.60
2022-09-21T08:14:25.346Z,94.80
2022-09-21T08:16:56.715Z,95.10
2022-09-21T08:19:30.150Z,95.20
2022-09-21T08:22:01.126Z,95.40
2022-09-21T08:24:32.980Z,95.40
2022-09-21T08:27:03.349Z,95.60
2022-09-21T08:29:33.612Z,95.30
2022-09-21T08:32:04.344Z,95.30
2022-09-21T08:34:34.617Z,95.20
2022-09-21T08:37:05.039Z,95.40
2022-09-21T08:39:35.313Z,95.50
2022-09-21T08:42:28.118Z,95.50
2022-09-21T08:45:09.255Z,95.40
2022-09-21T08:47:55.166Z,95.60
2022-09-21T08:50:54.888Z,95.50
2022-09-21T08:53:30.540Z,95.60
2022-09-21T08:56:01.224Z,95.60
2022-09-21T08:58:34.087Z,95.80
2022-09-21T09:01:25.638Z,95.70
2022-09-21T09:04:22.192Z,95.50
2022-09-21T09:07:08.360Z,95.50
2022-09-21T09:09:53.671Z,95.30
2022-09-21T09:12:54.182Z,95.20
2022-09-21T09:15:57.292Z,95.20
2022-09-21T09:18:44.102Z,94.60
2022-09-21T09:21:27.886Z,94.70
2022-09-21T09:24:07.542Z,94.60
2022-09-21T09:27:01.304Z,94.40
2022-09-21T09:29:49.605Z,94.70
2022-09-21T09:32:21.244Z,94.80
2022-09-21T09:35:09.304Z,94.90
2022-09-21T09:37:44.489Z,95.10
2022-09-21T09:40:17.467Z,95.30
2022-09-21T09:43:24.138Z,95.40
2022-09-21T09:46:03.497Z,95.60
2022-09-21T09:49:11.829Z,95.80
2022-09-21T09:51:43.823Z,95.60
2022-09-21T09:54:22.200Z,95.20
2022-09-21T09:56:52.663Z,95.30
2022-09-21T09:59:38.965Z,95.30
2022-09-21T10:02:31.682Z,95.10
2022-09-21T10:05:09.434Z,95.10
2022-09-21T10:07:44.813Z,94.90
2022-09-21T10:10:34.518Z,95.10
2022-09-21T10:13:25.047Z,95.30
2022-09-21T10:15:59.799Z,95.20
2022-09-21T10:18:54.222Z,95.10
2022-09-21T10:21:36.691Z,95.00
2022-09-21T10:24:20.949Z,95.10
2022-09-21T10:26:58.116Z,94.70
2022-09-21T10:29:28.770Z,94.70
2022-09-21T10:32:13.738Z,94.40
2022-09-21T10:35:03.908Z,94.60
2022-09-21T10:37:49.178Z,94.40
2022-09-21T10:40:22.826Z,94.30
2022-09-21T10:42:57.284Z,93.70
2022-09-21T10:45:34.493Z,93.60
2022-09-21T10:48:18.247Z,93.70
2022-09-21T10:50:51.852Z,93.20
2022-09-21T10:53:40.433Z,93.40
2022-09-21T10:56:21.682Z,93.80
2022-09-21T10:59:13.488Z,93.80
2022-09-21T11:01:55.792Z,93.50
2022-09-21T11:04:48.450Z,93.30
2022-09-21T11:07:26.148Z,92.90
2022-09-21T11:10:11.459Z,93.10
2022-09-21T11:12:53.751Z,93.50
2022-09-21T11:15:52.257Z,93.20
2022-09-21T11:19:00.088Z,93.00
2022-09-21T11:21:42.100Z,92.80
2022-09-21T11:24:45.976Z,93.30
2022-09-21T11:27:27.463Z,93.40
2022-09-21T11:30:04.809Z,93.40
2022-09-21T11:32:50.742Z,92.90
2022-09-21T11:35:54.606Z,93.50
2022-09-21T11:38:34.699Z,93.70
2022-09-21T11:41:11.302Z,93.70
2022-09-21T11:44:10.334Z,94.00
2022-09-21T11:46:46.273Z,93.80
2022-09-21T11:49:51.928Z,93.70
2022-09-21T11:52:40.701Z,94.00
2022-09-21T11:55:20.229Z,94.20
2022-09-21T11:58:14.268Z,94.40
2022-09-21T12:01:02.048Z,94.40
2022-09-21T12:04:01.411Z,94.40
2022-09-21T12:06:51.449Z,94.50
2022-09-21T12:09:40.225Z,94.40
2022-09-21T12:12:26.320Z,94.40
2022-09-21T12:15:02.771Z,93.90
2022-09-21T12:18:01.951Z,93.70
2022-09-21T12:20:50.295Z,94.10
2022-09-21T12:23:35.056Z,94.00
2022-09-21T12:26:07.690Z,94.10
2022-09-21T12:29:02.786Z,94.10
2022-09-21T12:31:41.919Z,94.30
2022-09-21T12:34:25.820Z,94.00
2022-09-21T12:37:18.021Z,94.30
2022-09-21T12:40:14.917Z,94.30
2022-09-21T12:42:53.424Z,94.20
2022-09-21T12:45:40.191Z,94.40
2022-09-21T12:48:28.489Z,94.20
2022-09-21T12:51:06.199Z,93.70
2022-09-21T12:53:41.136Z,94.00
2022-09-21T12:56:53.958Z,94.00
2022-09-21T12:59:33.400Z,93.80
2022-09-21T13:02:15.212Z,93.70
2022-09-21T13:05:04.770Z,93.40
2022-09-21T13:11:03.099Z,93.30
2022-09-21T13:13:55.494Z,93.30
2022-09-21T13:16:40.498Z,93.30
2022-09-21T13:19:24.791Z,93.30
2022-09-21T13:22:26.448Z,93.20
2022-09-21T13:25:12.179Z,93.40
2022-09-21T13:28:05.842Z,93.10
2022-09-21T13:31:39.519Z,93.20
2022-09-21T13:34:30.692Z,93.40
2022-09-21T13:37:22.244Z,93.30
2022-09-21T13:40:05.903Z,93.70
2022-09-21T13:42:36.385Z,93.70
2022-09-21T13:45:15.765Z,93.60
2022-09-21T13:47:50.374Z,93.70
2022-09-21T13:50:36.338Z,93.70
2022-09-21T13:53:20.911Z,93.60
2022-09-21T13:56:02.888Z,93.30
2022-09-21T13:58:37.997Z,93.10
2022-09-21T14:01:42.577Z,93.00
2022-09-21T14:04:30.542Z,93.00
2022-09-21T14:07:05.224Z,92.70
2022-09-21T14:09:54.052Z,93.00
2022-09-21T14:12:27.748Z,93.30
2022-09-21T14:15:21.071Z,93.30
2022-09-21T14:18:35.668Z,93.60
2022-09-21T14:21:19.114Z,93.70
2022-09-21T14:24:13.015Z,93.70
2022-09-21T14:26:43.635Z,93.90
2022-09-21T14:29:26.677Z,93.70
2022-09-21T14:32:03.635Z,93.70
2022-09-21T14:34:43.182Z,94.00
2022-09-21T14:37:36.720Z,93.90
2022-09-21T14:40:22.584Z,93.90
2022-09-21T14:42:54.229Z,94.10
2022-09-21T14:45:45.202Z,93.90
2022-09-21T14:48:42.745Z,94.00
2022-09-21T14:51:39.815Z,93.90
2022-09-21T14:54:48.178Z,93.60
2022-09-21T14:57:58.518Z,93.60
2022-09-21T15:00:42.602Z,93.60
2022-09-21T15:03:41.309Z,93.40
2022-09-21T15:07:10.028Z,93.40
2022-09-21T15:10:26.953Z,92.90
2022-09-21T15:13:22.239Z,92.90
2022-09-21T15:16:28.458Z,92.70
2022-09-21T15:19:15.633Z,92.70
2022-09-21T15:21:49.154Z,92.70
2022-09-21T15:24:35.117Z,92.50
2022-09-21T15:27:18.210Z,92.80
2022-09-21T15:29:53.141Z,92.50
2022-09-21T15:32:44.802Z,92.60
2022-09-21T15:35:22.023Z,92.60
2022-09-21T15:37:54.165Z,92.70
2022-09-21T15:40:26.475Z,93.20
2022-09-21T15:43:20.595Z,92.70
2022-09-21T15:46:13.943Z,93.00
2022-09-21T15:48:46.109Z,92.90
2022-09-21T15:51:29.713Z,93.00
2022-09-21T15:54:23.337Z,93.30
2022-09-21T15:56:53.690Z,93.20
2022-09-21T15:59:24.845Z,93.50
2022-09-21T16:01:58.105Z,93.60
2022-09-21T16:04:30.341Z,93.40
2022-09-21T16:07:05.815Z,93.60
2022-09-21T16:09:48.360Z,93.60
2022-09-21T16:12:37.215Z,93.60
2022-09-21T16:15:35.815Z,93.60
2022-09-21T16:18:10.221Z,93.20
2022-09-21T16:20:56.010Z,93.20
2022-09-21T16:23:33.399Z,93.20
2022-09-21T16:26:04.466Z,93.20
2022-09-21T16:28:44.998Z,93.20
2022-09-21T16:31:35.947Z,93.00
2022-09-21T16:34:35.138Z,93.10
2022-09-21T16:37:28.048Z,92.90
2022-09-21T16:40:02.879Z,93.00
2022-09-21T16:42:36.305Z,92.90
2022-09-21T16:45:19.239Z,93.00
2022-09-21T16:47:49.740Z,92.80
2022-09-21T16:50:20.809Z,92.90
2022-09-21T16:52:53.759Z,92.90
2022-09-21T16:55:28.978Z,92.70
2022-09-21T16:58:02.318Z,92.70
2022-09-21T17:00:39.921Z,92.80
2022-09-21T17:03:10.557Z,92.90
2022-09-21T17:05:41.659Z,93.10
2022-09-21T17:08:14.082Z,92.90
2022-09-21T17:10:48.421Z,92.90
2022-09-21T17:13:21.537Z,93.10
2022-09-21T17:15:52.210Z,93.00
2022-09-21T17:18:22.443Z,93.00
2022-09-21T17:20:52.815Z,93.00
2022-09-21T17:23:29.223Z,93.00
2022-09-21T17:25:59.513Z,93.10
2022-09-21T17:28:30.631Z,93.30
2022-09-21T17:31:01.312Z,93.60
2022-09-21T17:33:31.560Z,93.40
2022-09-21T17:36:01.846Z,93.60
2022-09-21T17:38:32.019Z,93.50
2022-09-21T17:41:05.259Z,93.30
2022-09-21T17:44:00.557Z,93.60
2022-09-21T17:46:43.952Z,93.60
2022-09-21T17:49:14.629Z,93.60
2022-09-21T17:52:03.046Z,94.10
2022-09-21T17:54:33.540Z,93.60
2022-09-21T17:57:24.054Z,93.70
2022-09-21T18:00:15.736Z,93.90
2022-09-21T18:02:46.876Z,93.80
2022-09-21T18:05:32.323Z,93.90
2022-09-21T18:08:03.207Z,93.80
2022-09-21T18:10:33.578Z,93.70
2022-09-21T18:13:18.316Z,93.80
2022-09-21T18:15:54.693Z,93.80
2022-09-21T18:18:47.293Z,93.80
2022-09-21T18:21:19.349Z,93.70
2022-09-21T18:24:12.727Z,93.70
2022-09-21T18:26:44.606Z,93.60
2022-09-21T18:29:39.778Z,93.60
2022-09-21T18:32:31.323Z,93.50
2022-09-21T18:35:21.946Z,93.30
2022-09-21T18:38:19.415Z,93.40
2022-09-21T18:41:11.148Z,93.30
2022-09-21T18:44:21.881Z,93.30
2022-09-21T18:47:05.968Z,93.40
2022-09-21T18:50:12.819Z,93.30
2022-09-21T18:53:18.252Z,93.40
2022-09-21T18:55:48.760Z,93.20
2022-09-21T18:58:19.319Z,93.20
2022-09-21T19:00:50.257Z,93.20
2022-09-21T19:03:20.826Z,93.30
2022-09-21T19:06:15.588Z,93.40
2022-09-21T19:09:04.334Z,93.20
2022-09-21T19:12:01.300Z,93.30
2022-09-21T19:14:59.159Z,93.30
2022-09-21T19:17:35.681Z,93.20
2022-09-21T19:20:07.199Z,93.30
2022-09-21T19:23:02.754Z,93.60
2022-09-21T19:25:53.940Z,93.80
2022-09-21T19:28:54.205Z,93.70
2022-09-21T19:31:25.244Z,94.00
2022-09-21T19:33:55.588Z,93.80
2022-09-21T19:36:25.962Z,93.90
2022-09-21T19:38:56.392Z,94.00
2022-09-21T19:41:51.138Z,93.90
2022-09-21T19:44:25.145Z,94.10
2022-09-21T19:47:27.895Z,94.00
2022-09-21T19:50:14.566Z,94.00
2022-09-21T19:52:45.897Z,94.00
2022-09-21T19:55:41.421Z,93.90
2022-09-21T19:58:30.436Z,94.10
2022-09-21T20:01:01.036Z,94.10
2022-09-21T20:03:44.780Z,94.20
2022-09-21T20:06:23.894Z,94.30
2022-09-21T20:09:13.581Z,94.10
2022-09-21T20:12:09.570Z,94.20
2022-09-21T20:14:48.111Z,94.20
2022-09-21T20:17:37.115Z,94.20
2022-09-21T20:20:21.276Z,94.40
2022-09-21T20:22:52.059Z,94.30
2022-09-21T20:25:39.879Z,94.40
2022-09-21T20:28:10.829Z,94.40
2022-09-21T20:30:41.732Z,94.30
2022-09-21T20:33:24.696Z,94.40
2022-09-21T20:35:57.076Z,94.20
2022-09-21T20:38:27.583Z,94.30
2022-09-21T20:40:59.974Z,94.30
2022-09-21T20:43:32.746Z,94.20
2022-09-21T20:46:05.168Z,94.20
2022-09-21T20:48:35.466Z,94.00
2022-09-21T20:51:08.833Z,94.00
2022-09-21T20:53:39.136Z,94.00
2022-09-21T20:56:09.424Z,93.70
2022-09-21T20:58:39.671Z,93.70
2022-09-21T21:01:12.707Z,93.70
2022-09-21T21:03:43.384Z,93.70
2022-09-21T21:06:22.344Z,93.70
2022-09-21T21:08:53.852Z,94.00
2022-09-21T21:11:26.475Z,94.30
2022-09-21T21:13:58.401Z,94.50
2022-09-21T21:16:29.359Z,94.70
2022-09-21T21:19:01.462Z,95.10
2022-09-21T21:21:32.253Z,95.40
2022-09-21T21:24:20.327Z,96.20
2022-09-21T21:27:01.644Z,96.20
2022-09-21T21:29:33.780Z,96.30
2022-09-21T21:32:05.505Z,96.70
2022-09-21T21:34:35.927Z,96.70
2022-09-21T21:37:06.225Z,96.70
2022-09-21T21:39:37.689Z,96.90
2022-09-21T21:42:08.551Z,96.30
2022-09-21T21:44:39.268Z,96.40
2022-09-21T21:47:35.180Z,96.30
2022-09-21T21:50:01.327Z,95.90
2022-09-21T21:52:32.104Z,95.90
2022-09-21T21:55:02.765Z,95.20
2022-09-21T21:57:33.310Z,95.30
2022-09-21T22:00:03.987Z,94.80
2022-09-21T22:02:34.771Z,94.50
2022-09-21T22:05:05.577Z,94.80
2022-09-21T22:07:36.030Z,94.40
2022-09-21T22:10:06.482Z,94.20
2022-09-21T22:12:37.406Z,94.30
2022-09-21T22:15:08.060Z,93.90
2022-09-21T22:17:38.423Z,93.90
2022-09-21T22:20:09.240Z,93.90
2022-09-21T22:22:39.902Z,93.90
2022-09-21T22:25:12.823Z,93.70
2022-09-21T22:27:43.997Z,93.70
2022-09-21T22:30:14.551Z,93.70
2022-09-21T22:32:45.196Z,93.60
2022-09-21T22:35:16.552Z,93.70
2022-09-21T22:37:46.955Z,93.90
2022-09-21T22:40:17.376Z,93.30
2022-09-21T22:42:49.496Z,93.40
2022-09-21T22:45:19.885Z,93.00
2022-09-21T22:47:50.316Z,93.30
2022-09-21T22:50:20.491Z,93.00
2022-09-21T22:52:50.702Z,92.50
2022-09-21T22:55:22.251Z,92.30
2022-09-21T22:57:52.899Z,92.30
2022-09-21T23:00:23.248Z,91.90
2022-09-21T23:02:58.135Z,91.70
2022-09-21T23:05:29.244Z,91.30
2022-09-21T23:08:00.607Z,91.30
2022-09-21T23:10:33.043Z,90.90
2022-09-21T23:13:04.930Z,90.50
2022-09-21T23:15:35.865Z,90.90
2022-09-21T23:18:06.499Z,90.90
2022-09-21T23:20:36.801Z,91.20
2022-09-21T23:23:07.746Z,90.60
2022-09-21T23:25:39.438Z,91.00
2022-09-21T23:28:10.057Z,91.00
2022-09-21T23:30:40.327Z,90.90
2022-09-21T23:33:11.284Z,91.30
2022-09-21T23:35:44.134Z,91.20
2022-09-21T23:38:14.416Z,91.60
2022-09-21T23:40:45.057Z,90.20
2022-09-21T23:43:15.360Z,90.70
2022-09-21T23:45:45.657Z,90.50
2022-09-21T23:48:16.411Z,90.10
2022-09-21T23:50:46.968Z,89.90
2022-09-21T23:53:17.678Z,90.00
2022-09-21T23:55:48.328Z,90.30
2022-09-21T23:58:20.076Z,90.30
